Aérodrome :
LOGIN :

S'inscrire | Disclaimer

   EN    FR    IT 

 










Légende :    VFR   VFR Marginal   IFR   IFR Intensif   IFR Très Intensif
Visi : 
Plafond : 
>= 8 km
>= 3000ft
5 à 8 km
1000 à 3000 ft
1500m à 5 km
500 à 1000 ft
800 à 1500m
200 à 500 ft
< 800m
< 200 ft
Symboles :   Orages  Brouillard  Fortes neiges  Fortes précipitations  Vent > 20 kt
SIGMETs :   Divers  Orages  Givrage  Turbulence  Onde Orograph.  Cendres Volcan.






- Altitude de l'aérodrome : 600 ft
- Code IATA : VIE


LOWW - Vienna Schwechat

DERNIER METAR :
  • 291820Z 14004KT CAVOK M03/M05 Q1009 NOSIG

METARs EXPIRÉS :
  • 291750Z 16007KT CAVOK M03/M05 Q1009 NOSIG
  • 291720Z 15004KT CAVOK M02/M04 Q1009 NOSIG
  • 291650Z 14004KT CAVOK M01/M04 Q1009 NOSIG
  • 291620Z 15004KT CAVOK M01/M04 Q1010 NOSIG
  • 291550Z 13005KT 9999 FEW038 00/M04 Q1009 NOSIG
  • 291520Z 19005KT 150V260 9999 FEW028 M01/M04 Q1009 NOSIG
  • 291450Z 26006KT 9999 FEW030 01/M04 Q1009 NOSIG
  • 291420Z 31008KT 9999 FEW030 02/M04 Q1009 NOSIG
  • 291350Z 29011KT 9999 FEW030 03/M04 Q1009 NOSIG
  • 291320Z 29011KT 9999 SCT030 03/M04 Q1009 NOSIG

TAF TAF LOWW
Valide du 29 à 18h jusqu'au 01 à 00h UTC


291715Z 2918/3024 16008KT CAVOK TX00/3023Z TNM02/3001Z
BECMG 3004/3006 11005KT
BECMG 3014/3016 BKN009
TEMPO 3017/3024 -DZ BKN005



MET'MAP, la Météo Aéronautique d'un coup d'oeil ! - Copyright ORBIFLY Décembre 2007 - Disclaimer

ORBIFLY MET'MAP TEAM :

Programmation & Développement : Alexandra Zaïnal
Sur une idée originale de : Baudouin d'Aumeries
Soutien technique & logistique : Manuel Goepfert
Assistance : Marc-Olivier Méhu




SOURCES & CREDITS :

   NOAA